createdAt,value
2023-04-02T00:00:10.950Z,2.67
2023-04-02T00:02:57.865Z,3.53
2023-04-02T00:05:26.096Z,3.40
2023-04-02T00:10:30.309Z,2.53
2023-04-02T00:13:17.654Z,2.72
2023-04-02T00:15:45.900Z,2.58
2023-04-02T00:20:42.161Z,2.53
2023-04-02T00:23:11.505Z,2.80
2023-04-02T00:25:43.260Z,3.13
2023-04-02T00:28:18.043Z,3.65
2023-04-02T00:30:52.576Z,2.90
2023-04-02T00:33:21.326Z,2.80
2023-04-02T00:35:48.992Z,2.60
2023-04-02T00:38:19.705Z,2.70
2023-04-02T00:40:46.383Z,2.53
2023-04-02T00:43:16.866Z,2.58
2023-04-02T00:45:50.872Z,2.95
2023-04-02T00:48:30.929Z,2.78
2023-04-02T00:50:59.632Z,2.75
2023-04-02T00:53:28.635Z,2.20
2023-04-02T00:55:56.196Z,2.40
2023-04-02T00:58:31.933Z,2.50
2023-04-02T01:00:58.976Z,2.38
2023-04-02T01:03:29.119Z,2.63
2023-04-02T01:06:04.756Z,2.85
2023-04-02T01:08:41.844Z,2.45
2023-04-02T01:11:27.186Z,2.70
2023-04-02T01:13:53.647Z,2.92
2023-04-02T01:16:33.118Z,1.80
2023-04-02T01:19:13.815Z,2.70
2023-04-02T01:21:54.042Z,2.78
2023-04-02T01:24:21.118Z,2.70
2023-04-02T01:27:05.461Z,3.60
2023-04-02T01:29:34.320Z,2.75
2023-04-02T01:32:02.746Z,2.63
2023-04-02T01:34:31.055Z,3.42
2023-04-02T01:37:27.457Z,3.00
2023-04-02T01:40:13.089Z,2.47
2023-04-02T01:42:39.834Z,1.60
2023-04-02T01:45:11.280Z,1.58
2023-04-02T01:47:38.902Z,1.65
2023-04-02T01:50:16.762Z,1.88
2023-04-02T01:52:44.757Z,2.25
2023-04-02T01:55:13.238Z,2.33
2023-04-02T01:57:43.438Z,1.75
2023-04-02T02:00:14.905Z,2.03
2023-04-02T02:02:42.416Z,2.20
2023-04-02T02:05:16.410Z,2.70
2023-04-02T02:07:43.583Z,2.30
2023-04-02T02:10:15.059Z,1.95
2023-04-02T02:12:42.918Z,2.13
2023-04-02T02:15:20.056Z,2.33
2023-04-02T02:17:46.662Z,3.00
2023-04-02T02:20:13.725Z,6.32
2023-04-02T02:22:42.895Z,6.82
2023-04-02T02:25:15.832Z,6.78
2023-04-02T02:27:45.516Z,6.00
2023-04-02T02:30:32.322Z,5.82
2023-04-02T02:33:18.076Z,6.03
2023-04-02T02:35:53.918Z,6.50
2023-04-02T02:38:21.050Z,5.70
2023-04-02T02:40:48.326Z,4.85
2023-04-02T02:43:15.076Z,4.50
2023-04-02T02:45:42.978Z,4.28
2023-04-02T02:48:12.613Z,3.47
2023-04-02T02:50:39.952Z,3.53
2023-04-02T02:53:16.122Z,2.53
2023-04-02T02:55:42.768Z,3.45
2023-04-02T02:58:11.821Z,3.22
2023-04-02T03:00:39.412Z,2.80
2023-04-02T03:03:08.288Z,3.08
2023-04-02T03:05:35.686Z,2.53
2023-04-02T03:08:03.872Z,6.07
2023-04-02T03:10:30.401Z,11.20
2023-04-02T03:13:05.244Z,7.47
2023-04-02T03:15:44.000Z,5.63
2023-04-02T03:18:39.931Z,4.78
2023-04-02T03:21:22.381Z,4.20
2023-04-02T03:23:57.595Z,4.57
2023-04-02T03:26:34.204Z,3.15
2023-04-02T03:29:07.646Z,1.95
2023-04-02T03:31:44.481Z,1.92
2023-04-02T03:34:18.637Z,3.20
2023-04-02T03:36:46.743Z,2.15
2023-04-02T03:39:16.418Z,2.03
2023-04-02T03:41:45.453Z,2.10
2023-04-02T03:44:18.387Z,2.60
2023-04-02T03:46:46.513Z,2.70
2023-04-02T03:49:33.324Z,2.25
2023-04-02T03:52:05.969Z,2.42
2023-04-02T03:54:32.792Z,2.03
2023-04-02T03:56:59.532Z,2.00
2023-04-02T03:59:32.374Z,2.60
2023-04-02T04:02:01.371Z,2.83
2023-04-02T04:04:28.940Z,2.88
2023-04-02T04:06:56.388Z,1.85
2023-04-02T04:09:29.419Z,1.67
2023-04-02T04:12:02.599Z,1.98
2023-04-02T04:14:31.516Z,2.15
2023-04-02T04:17:16.665Z,2.33
2023-04-02T04:19:48.421Z,1.98
2023-04-02T04:22:20.076Z,3.67
2023-04-02T04:24:47.259Z,2.30
2023-04-02T04:27:21.682Z,3.15
2023-04-02T04:29:52.167Z,2.60
2023-04-02T04:32:27.334Z,2.20
2023-04-02T04:35:01.205Z,2.25
2023-04-02T04:37:33.827Z,1.92
2023-04-02T04:40:04.185Z,2.70
2023-04-02T04:42:31.985Z,3.17
2023-04-02T04:45:24.005Z,3.33
2023-04-02T04:48:04.959Z,2.47
2023-04-02T04:50:31.496Z,2.30
2023-04-02T04:53:04.700Z,2.72
2023-04-02T04:55:37.193Z,2.25
2023-04-02T04:58:24.254Z,1.98
2023-04-02T05:00:53.779Z,2.00
2023-04-02T05:03:30.268Z,2.30
2023-04-02T05:06:08.941Z,2.00
2023-04-02T05:08:37.815Z,1.80
2023-04-02T05:11:13.895Z,1.95
2023-04-02T05:13:43.511Z,2.10
2023-04-02T05:16:10.129Z,2.50
2023-04-02T05:18:40.154Z,2.30
2023-04-02T05:21:16.655Z,2.25
2023-04-02T05:23:49.402Z,2.00
2023-04-02T05:26:18.919Z,2.00
2023-04-02T05:28:48.542Z,1.70
2023-04-02T05:31:17.765Z,2.50
2023-04-02T05:33:46.088Z,10.85
2023-04-02T05:36:18.369Z,12.98
2023-04-02T05:38:46.522Z,20.88
2023-04-02T05:41:16.082Z,17.30
2023-04-02T05:43:46.286Z,30.10
2023-04-02T05:46:22.593Z,19.50
2023-04-02T05:48:51.989Z,17.35
2023-04-02T05:51:38.731Z,5.38
2023-04-02T05:54:06.736Z,5.35
2023-04-02T05:56:43.224Z,9.23
2023-04-02T05:59:12.727Z,4.10
2023-04-02T06:01:56.062Z,3.50
2023-04-02T06:04:41.399Z,3.85
2023-04-02T06:07:32.157Z,2.65
2023-04-02T06:10:03.545Z,2.47
2023-04-02T06:12:33.373Z,2.38
2023-04-02T06:14:59.896Z,2.30
2023-04-02T06:17:27.450Z,2.05
2023-04-02T06:19:55.762Z,3.97
2023-04-02T06:24:50.597Z,2.95
2023-04-02T06:27:20.129Z,2.42
2023-04-02T06:29:47.830Z,2.17
2023-04-02T06:32:14.331Z,1.90
2023-04-02T06:34:41.696Z,2.55
2023-04-02T06:37:34.455Z,2.43
2023-04-02T06:40:01.483Z,3.15
2023-04-02T06:42:33.833Z,2.22
2023-04-02T06:45:00.456Z,3.60
2023-04-02T06:47:33.167Z,3.30
2023-04-02T06:50:16.983Z,2.50
2023-04-02T06:52:45.926Z,2.85
2023-04-02T06:55:24.890Z,2.63
2023-04-02T07:00:36.241Z,3.50
2023-04-02T07:03:05.736Z,3.60
2023-04-02T07:05:32.255Z,3.92
2023-04-02T07:07:58.899Z,3.45
2023-04-02T07:10:25.423Z,2.28
2023-04-02T07:12:51.964Z,1.50
2023-04-02T07:15:23.988Z,1.60
2023-04-02T07:17:52.323Z,1.40
2023-04-02T07:20:24.722Z,2.78
2023-04-02T07:22:51.592Z,2.03
2023-04-02T07:25:18.126Z,1.48
2023-04-02T07:27:44.638Z,1.75
2023-04-02T07:30:11.382Z,1.70
2023-04-02T07:32:38.468Z,1.42
2023-04-02T07:35:05.719Z,1.40
2023-04-02T07:37:32.274Z,1.30
2023-04-02T07:39:58.766Z,1.23
2023-04-02T07:42:25.372Z,1.25
2023-04-02T07:44:51.889Z,0.80
2023-04-02T07:47:18.360Z,1.08
2023-04-02T07:49:44.890Z,0.80
2023-04-02T07:52:11.917Z,1.10
2023-04-02T07:54:38.483Z,0.82
2023-04-02T07:57:05.219Z,1.10
2023-04-02T07:59:31.909Z,0.70
2023-04-02T08:01:58.885Z,1.00
2023-04-02T08:04:27.052Z,0.82
2023-04-02T08:09:19.977Z,0.90
2023-04-02T08:11:46.699Z,0.80
2023-04-02T08:14:13.509Z,0.80
2023-04-02T08:16:50.650Z,1.10
2023-04-02T08:19:17.308Z,0.60
2023-04-02T08:21:43.820Z,1.00
2023-04-02T08:24:10.373Z,0.98
2023-04-02T08:26:37.403Z,1.10
2023-04-02T08:29:04.291Z,0.75
2023-04-02T08:31:30.942Z,0.80
2023-04-02T08:33:57.577Z,0.65
2023-04-02T08:36:29.295Z,0.68
2023-04-02T08:38:56.675Z,0.40
2023-04-02T08:41:27.909Z,0.73
2023-04-02T08:44:13.410Z,0.50
2023-04-02T08:46:39.880Z,0.63
2023-04-02T08:49:12.632Z,0.60
2023-04-02T08:51:39.165Z,0.60
2023-04-02T08:54:12.113Z,0.70
2023-04-02T08:56:38.959Z,0.93
2023-04-02T08:59:17.710Z,1.10
2023-04-02T09:01:54.280Z,0.98
2023-04-02T09:04:22.845Z,0.80
2023-04-02T09:06:49.915Z,1.02
2023-04-02T09:09:16.881Z,0.82
2023-04-02T09:11:49.257Z,0.85
2023-04-02T09:14:20.560Z,0.73
2023-04-02T09:16:47.055Z,0.50
2023-04-02T09:19:18.608Z,0.93
2023-04-02T09:22:04.068Z,1.10
2023-04-02T09:24:30.641Z,0.50
2023-04-02T09:26:57.191Z,0.63
2023-04-02T09:29:35.501Z,0.63
2023-04-02T09:32:12.304Z,0.90
2023-04-02T09:34:38.873Z,0.70
2023-04-02T09:37:14.114Z,0.60
2023-04-02T09:39:41.125Z,0.60
2023-04-02T09:42:08.296Z,0.68
2023-04-02T09:44:35.150Z,0.70
2023-04-02T09:47:05.745Z,0.90
2023-04-02T09:49:36.802Z,1.00
2023-04-02T09:52:21.822Z,0.88
2023-04-02T09:55:07.020Z,0.70
2023-04-02T09:57:33.632Z,0.95
2023-04-02T10:00:12.315Z,0.77
2023-04-02T10:02:46.656Z,0.73
2023-04-02T10:05:39.511Z,0.55
2023-04-02T10:08:10.096Z,0.75
2023-04-02T10:10:39.750Z,0.80
2023-04-02T10:13:09.100Z,0.40
2023-04-02T10:15:40.570Z,1.88
2023-04-02T10:18:13.333Z,1.55
2023-04-02T10:20:50.408Z,3.05
2023-04-02T10:23:17.809Z,1.60
2023-04-02T10:26:08.225Z,0.80
2023-04-02T10:28:50.192Z,0.77
2023-04-02T10:31:25.541Z,0.60
2023-04-02T10:33:56.060Z,2.63
2023-04-02T10:36:44.955Z,3.05
2023-04-02T10:39:32.550Z,0.90
2023-04-02T10:42:19.938Z,1.30
2023-04-02T10:44:55.931Z,0.80
2023-04-02T10:47:22.545Z,0.75
2023-04-02T10:49:52.151Z,0.45
2023-04-02T10:52:26.925Z,0.95
2023-04-02T10:55:05.245Z,0.70
2023-04-02T10:57:35.284Z,0.38
2023-04-02T11:00:16.663Z,0.70
2023-04-02T11:02:43.324Z,0.40
2023-04-02T11:05:44.132Z,0.70
2023-04-02T11:08:31.282Z,1.80
2023-04-02T11:11:21.541Z,1.80
2023-04-02T11:13:52.650Z,1.25
2023-04-02T11:16:19.258Z,1.55
2023-04-02T11:19:04.700Z,1.67
2023-04-02T11:21:58.511Z,1.00
2023-04-02T11:24:37.371Z,0.85
2023-04-02T11:27:05.715Z,0.80
2023-04-02T11:29:34.575Z,0.68
2023-04-02T11:32:19.827Z,0.50
2023-04-02T11:35:06.645Z,5.35
2023-04-02T11:37:33.902Z,3.33
2023-04-02T11:40:20.741Z,0.70
2023-04-02T11:42:48.756Z,2.17
2023-04-02T11:45:21.620Z,1.58
2023-04-02T11:48:00.969Z,0.60
2023-04-02T11:50:27.828Z,0.43
2023-04-02T11:52:54.603Z,0.50
2023-04-02T11:55:27.448Z,0.70
2023-04-02T11:58:00.349Z,1.27
2023-04-02T12:00:37.724Z,0.70
2023-04-02T12:03:25.740Z,0.60
2023-04-02T12:05:58.946Z,0.40
2023-04-02T12:08:56.967Z,0.70
2023-04-02T12:11:37.900Z,0.80
2023-04-02T12:14:07.872Z,1.88
2023-04-02T12:16:35.240Z,2.83
2023-04-02T12:19:02.511Z,1.23
2023-04-02T12:21:29.466Z,1.77
2023-04-02T12:23:57.905Z,1.70
2023-04-02T12:26:26.397Z,0.80
2023-04-02T12:28:53.052Z,2.20
2023-04-02T12:31:21.765Z,1.15
2023-04-02T12:33:51.716Z,0.90
2023-04-02T12:36:19.818Z,2.70
2023-04-02T12:38:48.209Z,0.90
2023-04-02T12:41:27.170Z,18.73
2023-04-02T12:43:58.471Z,1.10
2023-04-02T12:46:26.128Z,0.95
2023-04-02T12:48:54.374Z,1.35
2023-04-02T12:51:21.000Z,1.00
2023-04-02T12:53:51.902Z,0.70
2023-04-02T12:56:21.770Z,1.73
2023-04-02T12:58:58.572Z,0.75
2023-04-02T13:01:28.338Z,1.20
2023-04-02T13:04:04.107Z,0.80
2023-04-02T13:06:31.085Z,0.77
2023-04-02T13:08:58.051Z,1.10
2023-04-02T13:11:33.662Z,0.80
2023-04-02T13:14:02.074Z,2.05
2023-04-02T13:16:39.140Z,1.40
2023-04-02T13:19:25.616Z,1.25
2023-04-02T13:21:53.143Z,1.35
2023-04-02T13:24:27.359Z,1.60
2023-04-02T13:26:55.506Z,1.73
2023-04-02T13:31:48.914Z,3.20
2023-04-02T13:34:15.510Z,2.63
2023-04-02T13:36:42.085Z,1.00
2023-04-02T13:39:08.606Z,2.10
2023-04-02T13:41:39.673Z,1.88
2023-04-02T13:44:06.354Z,5.45
2023-04-02T13:46:33.977Z,1.83
2023-04-02T13:49:00.662Z,1.45
2023-04-02T13:51:31.971Z,1.80
2023-04-02T13:53:58.526Z,1.75
2023-04-02T13:56:25.209Z,3.35
2023-04-02T13:58:52.309Z,1.80
2023-04-02T14:01:20.785Z,1.60
2023-04-02T14:03:47.379Z,1.42
2023-04-02T14:06:20.080Z,1.83
2023-04-02T14:08:46.552Z,1.80
2023-04-02T14:11:13.038Z,1.60
2023-04-02T14:13:48.753Z,1.70
2023-04-02T14:16:41.873Z,2.08
2023-04-02T14:19:11.424Z,2.22
2023-04-02T14:21:57.465Z,2.47
2023-04-02T14:24:42.852Z,3.78
2023-04-02T14:27:35.767Z,2.92
2023-04-02T14:30:08.749Z,2.08
2023-04-02T14:32:45.504Z,2.10
2023-04-02T14:35:12.022Z,3.35
2023-04-02T14:37:57.284Z,2.22
2023-04-02T14:40:23.798Z,4.32
2023-04-02T14:42:50.319Z,3.97
2023-04-02T14:45:19.915Z,3.30
2023-04-02T14:47:50.550Z,3.13
2023-04-02T14:50:19.556Z,13.30
2023-04-02T14:52:47.677Z,5.53
2023-04-02T14:57:42.889Z,4.32
2023-04-02T15:00:28.327Z,3.00
2023-04-02T15:03:13.806Z,2.90
2023-04-02T15:05:40.436Z,5.32
2023-04-02T15:08:27.320Z,5.00
2023-04-02T15:10:53.842Z,3.45
2023-04-02T15:13:22.903Z,2.95
2023-04-02T15:15:52.536Z,2.75
2023-04-02T15:18:19.150Z,3.72
2023-04-02T15:21:02.763Z,3.30
2023-04-02T15:23:29.375Z,6.72
2023-04-02T15:26:02.775Z,10.02
2023-04-02T15:28:32.485Z,6.30
2023-04-02T15:31:01.232Z,9.18
2023-04-02T15:33:34.983Z,8.27
2023-04-02T15:36:29.650Z,4.03
2023-04-02T15:39:02.346Z,4.43
2023-04-02T15:41:35.796Z,5.00
2023-04-02T15:44:06.552Z,2.72
2023-04-02T15:46:51.801Z,3.95
2023-04-02T15:49:37.370Z,3.50
2023-04-02T15:52:12.818Z,3.45
2023-04-02T15:54:58.180Z,2.55
2023-04-02T15:57:32.410Z,8.15
2023-04-02T16:00:15.423Z,5.10
2023-04-02T16:02:54.131Z,6.25
2023-04-02T16:05:36.788Z,5.70
2023-04-02T16:08:12.649Z,7.05
2023-04-02T16:10:42.945Z,5.20
2023-04-02T16:13:29.539Z,2.90
2023-04-02T16:15:56.118Z,4.00
2023-04-02T16:18:28.660Z,3.80
2023-04-02T16:20:57.254Z,4.90
2023-04-02T16:23:29.829Z,3.10
2023-04-02T16:26:15.080Z,3.63
2023-04-02T16:28:57.050Z,14.73
2023-04-02T16:31:32.850Z,6.47
2023-04-02T16:34:03.179Z,9.68
2023-04-02T16:36:56.055Z,13.50
2023-04-02T16:39:31.573Z,8.63
2023-04-02T16:42:07.381Z,4.70
2023-04-02T16:44:40.468Z,4.85
2023-04-02T16:47:19.470Z,5.18
2023-04-02T16:49:57.447Z,6.93
2023-04-02T16:52:39.176Z,5.23
2023-04-02T16:55:11.168Z,5.43
2023-04-02T16:58:04.473Z,5.45
2023-04-02T17:00:38.990Z,7.15
2023-04-02T17:03:05.681Z,8.75
2023-04-02T17:05:36.207Z,8.75
2023-04-02T17:08:08.788Z,9.88
2023-04-02T17:10:38.472Z,8.60
2023-04-02T17:13:18.115Z,6.60
2023-04-02T17:15:48.943Z,4.65
2023-04-02T17:18:24.827Z,4.05
2023-04-02T17:20:51.703Z,4.50
2023-04-02T17:23:19.275Z,6.60
2023-04-02T17:25:49.320Z,6.38
2023-04-02T17:28:18.689Z,5.10
2023-04-02T17:30:47.909Z,4.00
2023-04-02T17:33:16.563Z,3.92
2023-04-02T17:35:49.553Z,4.78
2023-04-02T17:38:31.346Z,10.70
2023-04-02T17:41:17.634Z,23.80
2023-04-02T17:43:56.396Z,18.23
2023-04-02T17:46:42.031Z,20.80
2023-04-02T17:49:17.073Z,35.95
2023-04-02T17:52:01.125Z,70.68
2023-04-02T17:54:31.633Z,78.72
2023-04-02T17:57:07.482Z,85.30
2023-04-02T17:59:40.161Z,15.27
2023-04-02T18:02:12.986Z,5.88
2023-04-02T18:04:57.699Z,3.88
2023-04-02T18:07:44.512Z,3.80
2023-04-02T18:10:30.020Z,11.93
2023-04-02T18:12:57.830Z,12.90
2023-04-02T18:15:39.959Z,13.82
2023-04-02T18:18:26.504Z,25.20
2023-04-02T18:20:53.021Z,10.70
2023-04-02T18:23:26.800Z,7.50
2023-04-02T18:26:17.020Z,7.03
2023-04-02T18:29:02.435Z,8.57
2023-04-02T18:31:46.506Z,5.68
2023-04-02T18:34:25.176Z,6.55
2023-04-02T18:37:10.495Z,4.22
2023-04-02T18:39:44.987Z,3.28
2023-04-02T18:42:18.879Z,4.45
2023-04-02T18:44:50.083Z,9.57
2023-04-02T18:47:25.486Z,7.45
2023-04-02T18:49:56.472Z,10.98
2023-04-02T18:52:25.079Z,19.17
2023-04-02T18:54:54.656Z,19.02
2023-04-02T18:57:30.100Z,20.92
2023-04-02T19:00:05.948Z,27.00
2023-04-02T19:02:39.476Z,20.75
2023-04-02T19:05:13.622Z,9.98
2023-04-02T19:07:42.616Z,10.93
2023-04-02T19:10:20.254Z,8.05
2023-04-02T19:12:46.864Z,9.30
2023-04-02T19:15:19.462Z,9.68
2023-04-02T19:17:49.269Z,8.90
2023-04-02T19:20:22.160Z,8.40
2023-04-02T19:22:48.665Z,8.95
2023-04-02T19:25:34.215Z,8.48
2023-04-02T19:28:04.093Z,6.72
2023-04-02T19:30:33.657Z,6.38
2023-04-02T19:33:16.818Z,5.68
2023-04-02T19:35:43.335Z,5.32
2023-04-02T19:38:13.002Z,5.43
2023-04-02T19:40:39.449Z,6.00
2023-04-02T19:43:06.961Z,9.00
2023-04-02T19:45:39.368Z,7.45
2023-04-02T19:48:24.625Z,6.97
2023-04-02T19:50:51.223Z,7.30
2023-04-02T19:53:18.164Z,7.25
2023-04-02T19:55:45.483Z,5.78
2023-04-02T19:58:23.050Z,5.23
2023-04-02T20:00:49.971Z,6.20
2023-04-02T20:03:16.799Z,5.13
2023-04-02T20:05:43.531Z,4.78
2023-04-02T20:08:13.361Z,5.28
2023-04-02T20:10:41.023Z,4.97
2023-04-02T20:13:08.594Z,4.32
2023-04-02T20:15:36.100Z,3.92
2023-04-02T20:18:02.967Z,4.72
2023-04-02T20:20:29.687Z,4.00
2023-04-02T20:22:56.643Z,5.43
2023-04-02T20:25:23.165Z,5.00
2023-04-02T20:27:49.732Z,4.03
2023-04-02T20:30:16.730Z,3.63
2023-04-02T20:32:43.426Z,3.72
2023-04-02T20:35:10.110Z,3.50
2023-04-02T20:37:36.613Z,2.97
2023-04-02T20:40:03.151Z,3.75
2023-04-02T20:42:29.651Z,3.33
2023-04-02T20:44:56.249Z,3.55
2023-04-02T20:47:23.140Z,3.88
2023-04-02T20:49:50.656Z,3.65
2023-04-02T20:52:17.396Z,3.55
2023-04-02T20:54:44.085Z,3.80
2023-04-02T20:57:10.632Z,3.88
2023-04-02T20:59:37.200Z,3.38
2023-04-02T21:02:03.749Z,2.92
2023-04-02T21:04:30.573Z,2.45
2023-04-02T21:06:57.948Z,2.75
2023-04-02T21:09:25.160Z,1.70
2023-04-02T21:11:51.731Z,3.30
2023-04-02T21:14:18.900Z,3.42
2023-04-02T21:16:46.311Z,3.33
2023-04-02T21:19:13.043Z,3.45
2023-04-02T21:21:40.844Z,3.05
2023-04-02T21:24:09.041Z,5.88
2023-04-02T21:29:02.578Z,5.57
2023-04-02T21:31:30.512Z,6.07
2023-04-02T21:33:58.112Z,4.90
2023-04-02T21:36:26.208Z,5.07
2023-04-02T21:38:54.423Z,4.68
2023-04-02T21:43:48.626Z,5.20
2023-04-02T21:46:20.369Z,3.40
2023-04-02T21:48:47.248Z,4.57
2023-04-02T21:51:18.442Z,4.55
2023-04-02T21:53:45.393Z,5.30
2023-04-02T21:56:13.092Z,5.20
2023-04-02T21:58:40.140Z,5.80
2023-04-02T22:01:11.207Z,5.90
2023-04-02T22:03:40.880Z,6.10
2023-04-02T22:06:12.300Z,5.90
2023-04-02T22:08:40.000Z,6.30
2023-04-02T22:11:06.818Z,6.72
2023-04-02T22:13:33.811Z,9.45
2023-04-02T22:16:06.792Z,7.90
2023-04-02T22:18:34.172Z,8.05
2023-04-02T22:21:02.080Z,9.60
2023-04-02T22:23:28.963Z,12.05
2023-04-02T22:25:56.740Z,7.13
2023-04-02T22:28:23.440Z,5.60
2023-04-02T22:30:49.987Z,4.30
2023-04-02T22:33:17.059Z,5.40
2023-04-02T22:35:43.695Z,9.10
2023-04-02T22:38:11.251Z,3.72
2023-04-02T22:40:38.098Z,4.68
2023-04-02T22:43:04.756Z,4.70
2023-04-02T22:45:31.260Z,3.47
2023-04-02T22:47:57.831Z,3.92
2023-04-02T22:50:24.896Z,3.95
2023-04-02T22:52:51.412Z,4.75
2023-04-02T22:55:18.130Z,3.55
2023-04-02T22:57:44.869Z,3.80
2023-04-02T23:00:13.319Z,3.85
2023-04-02T23:02:40.008Z,3.70
2023-04-02T23:05:07.939Z,3.95
2023-04-02T23:07:34.944Z,4.47
2023-04-02T23:10:02.827Z,3.30
2023-04-02T23:12:31.041Z,3.60
2023-04-02T23:14:58.075Z,3.13
2023-04-02T23:17:24.648Z,3.55
2023-04-02T23:19:51.125Z,3.80
2023-04-02T23:22:17.650Z,9.95
2023-04-02T23:24:44.165Z,5.47
2023-04-02T23:27:10.648Z,5.13
2023-04-02T23:29:37.134Z,4.88
2023-04-02T23:32:03.749Z,4.07
2023-04-02T23:34:30.592Z,4.38
2023-04-02T23:36:57.133Z,3.97
2023-04-02T23:39:23.670Z,5.20
2023-04-02T23:41:50.228Z,4.20
2023-04-02T23:44:16.730Z,3.20
2023-04-02T23:46:43.284Z,3.67
2023-04-02T23:49:11.257Z,3.25
2023-04-02T23:51:37.827Z,6.00
2023-04-02T23:54:04.603Z,8.65
2023-04-02T23:56:31.165Z,4.60
2023-04-02T23:58:57.633Z,4.07
